createdAt,value
2023-02-14T00:01:07.616Z,10.93
2023-02-14T00:03:34.417Z,10.07
2023-02-14T00:06:08.599Z,12.65
2023-02-14T00:08:35.207Z,9.88
2023-02-14T00:11:01.813Z,11.60
2023-02-14T00:13:28.584Z,10.40
2023-02-14T00:15:55.605Z,9.93
2023-02-14T00:18:22.215Z,11.57
2023-02-14T00:20:48.708Z,11.30
2023-02-14T00:23:15.243Z,11.70
2023-02-14T00:25:41.743Z,10.43
2023-02-14T00:28:08.229Z,12.95
2023-02-14T00:30:35.142Z,11.30
2023-02-14T00:33:02.077Z,10.33
2023-02-14T00:35:28.698Z,14.15
2023-02-14T00:37:55.295Z,11.43
2023-02-14T00:40:22.068Z,11.80
2023-02-14T00:42:48.786Z,12.67
2023-02-14T00:45:19.041Z,12.25
2023-02-14T00:47:45.555Z,12.95
2023-02-14T00:50:12.056Z,12.88
2023-02-14T00:52:38.545Z,12.63
2023-02-14T00:55:05.430Z,13.55
2023-02-14T00:57:31.953Z,13.57
2023-02-14T00:59:58.503Z,13.50
2023-02-14T01:02:25.120Z,12.80
2023-02-14T01:04:51.802Z,14.05
2023-02-14T01:07:18.362Z,14.07
2023-02-14T01:09:44.911Z,12.73
2023-02-14T01:12:11.462Z,16.08
2023-02-14T01:14:38.418Z,13.15
2023-02-14T01:17:04.916Z,15.93
2023-02-14T01:19:31.585Z,15.77
2023-02-14T01:21:58.348Z,15.70
2023-02-14T01:24:26.495Z,15.43
2023-02-14T01:26:53.031Z,15.15
2023-02-14T01:29:19.798Z,14.85
2023-02-14T01:31:48.754Z,15.87
2023-02-14T01:34:15.444Z,14.33
2023-02-14T01:36:42.255Z,13.82
2023-02-14T01:39:12.690Z,13.45
2023-02-14T01:41:41.637Z,15.13
2023-02-14T01:44:14.312Z,13.43
2023-02-14T01:46:42.606Z,12.38
2023-02-14T01:49:12.121Z,13.60
2023-02-14T01:51:46.061Z,12.02
2023-02-14T01:54:13.048Z,14.27
2023-02-14T01:56:43.124Z,14.43
2023-02-14T01:59:13.329Z,17.87
2023-02-14T02:01:40.439Z,17.15
2023-02-14T02:04:17.104Z,15.23
2023-02-14T02:06:46.084Z,13.30
2023-02-14T02:09:22.360Z,11.23
2023-02-14T02:11:48.991Z,10.95
2023-02-14T02:14:18.108Z,11.63
2023-02-14T02:17:20.558Z,11.57
2023-02-14T02:20:05.311Z,11.20
2023-02-14T02:22:56.560Z,9.43
2023-02-14T02:25:47.525Z,9.80
2023-02-14T02:28:45.640Z,10.48
2023-02-14T02:31:25.999Z,9.60
2023-02-14T02:34:01.795Z,10.17
2023-02-14T02:36:55.316Z,10.32
2023-02-14T02:39:34.805Z,8.27
2023-02-14T02:42:01.188Z,10.77
2023-02-14T02:44:42.394Z,9.87
2023-02-14T02:47:22.595Z,8.33
2023-02-14T02:50:18.465Z,9.97
2023-02-14T02:53:03.220Z,13.17
2023-02-14T02:56:01.202Z,10.97
2023-02-14T02:58:56.831Z,12.30
2023-02-14T03:01:41.502Z,11.13
2023-02-14T03:04:29.275Z,12.13
2023-02-14T03:06:56.388Z,12.37
2023-02-14T03:09:22.780Z,13.23
2023-02-14T03:12:05.154Z,12.43
2023-02-14T03:14:35.706Z,10.67
2023-02-14T03:17:06.754Z,11.50
2023-02-14T03:20:08.509Z,12.67
2023-02-14T03:22:44.272Z,11.53
2023-02-14T03:25:20.266Z,12.87
2023-02-14T03:28:16.233Z,13.03
2023-02-14T03:30:47.409Z,11.13
2023-02-14T03:33:20.358Z,13.77
2023-02-14T03:36:04.257Z,12.87
2023-02-14T03:38:47.032Z,12.53
2023-02-14T03:41:22.616Z,11.10
2023-02-14T03:43:52.120Z,11.63
2023-02-14T03:46:37.150Z,11.83
2023-02-14T03:49:08.472Z,12.97
2023-02-14T03:51:36.448Z,11.77
2023-02-14T03:54:07.418Z,12.23
2023-02-14T03:56:47.992Z,13.23
2023-02-14T03:59:17.291Z,13.60
2023-02-14T04:02:12.462Z,12.47
2023-02-14T04:04:42.430Z,12.53
2023-02-14T04:07:11.354Z,13.60
2023-02-14T04:09:37.853Z,13.07
2023-02-14T04:12:04.521Z,11.50
2023-02-14T04:14:31.096Z,12.43
2023-02-14T04:17:16.253Z,13.87
2023-02-14T04:19:42.786Z,14.23
2023-02-14T04:22:09.442Z,13.40
2023-02-14T04:24:35.957Z,12.93
2023-02-14T04:27:11.539Z,13.20
2023-02-14T04:29:58.373Z,13.33
2023-02-14T04:32:25.076Z,13.63
2023-02-14T04:34:51.678Z,16.10
2023-02-14T04:37:19.631Z,13.97
2023-02-14T04:39:46.412Z,15.20
2023-02-14T04:42:13.387Z,15.53
2023-02-14T04:44:39.890Z,16.23
2023-02-14T04:47:07.221Z,15.20
2023-02-14T04:49:34.350Z,16.07
2023-02-14T04:52:00.979Z,14.27
2023-02-14T04:54:27.666Z,13.40
2023-02-14T04:56:54.193Z,14.77
2023-02-14T04:59:21.328Z,11.43
2023-02-14T05:01:48.660Z,16.13
2023-02-14T05:04:15.312Z,15.37
2023-02-14T05:06:41.953Z,12.63
2023-02-14T05:09:08.579Z,12.20
2023-02-14T05:11:35.113Z,12.83
2023-02-14T05:14:23.773Z,12.50
2023-02-14T05:16:50.271Z,13.90
2023-02-14T05:19:16.750Z,17.53
2023-02-14T05:21:43.308Z,14.20
2023-02-14T05:24:09.928Z,12.50
2023-02-14T05:26:36.491Z,13.90
2023-02-14T05:29:03.080Z,12.77
2023-02-14T05:31:33.085Z,15.00
2023-02-14T05:34:02.853Z,14.70
2023-02-14T05:36:36.657Z,15.00
2023-02-14T05:39:03.620Z,16.07
2023-02-14T05:41:30.293Z,16.60
2023-02-14T05:43:56.964Z,20.33
2023-02-14T05:46:23.609Z,19.03
2023-02-14T05:48:50.206Z,18.80
2023-02-14T05:51:16.862Z,21.10
2023-02-14T05:53:43.416Z,22.27
2023-02-14T05:56:09.957Z,20.97
2023-02-14T05:58:36.522Z,22.37
2023-02-14T06:01:03.237Z,23.30
2023-02-14T06:03:29.819Z,26.17
2023-02-14T06:05:56.422Z,29.40
2023-02-14T06:08:23.002Z,25.33
2023-02-14T06:10:49.606Z,28.60
2023-02-14T06:13:16.567Z,29.03
2023-02-14T06:15:43.270Z,29.57
2023-02-14T06:18:12.471Z,28.57
2023-02-14T06:20:39.032Z,26.57
2023-02-14T06:23:05.596Z,27.43
2023-02-14T06:25:32.282Z,27.70
2023-02-14T06:28:03.130Z,24.93
2023-02-14T06:30:29.753Z,26.90
2023-02-14T06:32:56.387Z,25.47
2023-02-14T06:35:23.170Z,26.07
2023-02-14T06:37:49.823Z,29.17
2023-02-14T06:40:16.551Z,28.30
2023-02-14T06:42:43.223Z,30.57
2023-02-14T06:45:09.959Z,29.80
2023-02-14T06:47:36.517Z,33.77
2023-02-14T06:50:05.254Z,35.07
2023-02-14T06:52:34.901Z,37.37
2023-02-14T06:55:01.480Z,34.00
2023-02-14T06:57:28.357Z,30.37
2023-02-14T06:59:54.944Z,32.13
2023-02-14T07:02:24.651Z,33.30
2023-02-14T07:04:51.576Z,27.40
2023-02-14T07:07:18.263Z,22.50
2023-02-14T07:10:15.091Z,22.63
2023-02-14T07:12:41.837Z,16.90
2023-02-14T07:15:10.600Z,15.83
2023-02-14T07:17:37.150Z,17.37
2023-02-14T07:20:05.264Z,15.60
2023-02-14T07:22:31.804Z,16.63
2023-02-14T07:24:58.426Z,16.70
2023-02-14T07:27:24.981Z,17.20
2023-02-14T07:29:51.556Z,17.37
2023-02-14T07:32:40.198Z,18.27
2023-02-14T07:35:07.359Z,17.77
2023-02-14T07:37:35.131Z,17.27
2023-02-14T07:40:03.758Z,20.40
2023-02-14T07:42:30.413Z,19.40
2023-02-14T07:44:56.956Z,20.30
2023-02-14T07:47:25.202Z,20.83
2023-02-14T07:49:51.918Z,20.67
2023-02-14T07:52:18.460Z,23.47
2023-02-14T07:54:45.003Z,22.90
2023-02-14T07:57:11.489Z,24.03
2023-02-14T07:59:38.036Z,23.90
2023-02-14T08:02:04.965Z,28.20
2023-02-14T08:04:33.753Z,26.43
2023-02-14T08:07:28.535Z,28.13
2023-02-14T08:09:55.094Z,25.63
2023-02-14T08:12:40.229Z,24.10
2023-02-14T08:15:25.282Z,26.50
2023-02-14T08:17:51.907Z,26.63
2023-02-14T08:20:18.693Z,23.80
2023-02-14T08:22:45.193Z,26.03
2023-02-14T08:25:11.693Z,24.13
2023-02-14T08:27:40.325Z,23.97
2023-02-14T08:30:07.611Z,22.03
2023-02-14T08:32:34.543Z,25.40
2023-02-14T08:35:01.105Z,24.73
2023-02-14T08:37:27.749Z,23.63
2023-02-14T08:39:55.336Z,25.03
2023-02-14T08:42:21.889Z,26.70
2023-02-14T08:44:48.628Z,26.87
2023-02-14T08:47:15.229Z,23.13
2023-02-14T08:49:41.924Z,24.37
2023-02-14T08:52:08.483Z,23.83
2023-02-14T08:54:35.079Z,23.10
2023-02-14T08:57:03.547Z,23.87
2023-02-14T08:59:30.404Z,24.37
2023-02-14T09:01:57.006Z,22.77
2023-02-14T09:04:23.722Z,24.10
2023-02-14T09:06:50.601Z,25.63
2023-02-14T09:09:17.689Z,25.07
2023-02-14T09:11:44.301Z,22.40
2023-02-14T09:14:10.890Z,23.70
2023-02-14T09:16:39.667Z,25.60
2023-02-14T09:19:06.369Z,25.93
2023-02-14T09:21:34.329Z,26.60
2023-02-14T09:24:00.908Z,26.00
2023-02-14T09:26:28.730Z,23.70
2023-02-14T09:28:56.476Z,24.47
2023-02-14T09:31:24.610Z,24.73
2023-02-14T09:33:51.433Z,25.27
2023-02-14T09:36:18.186Z,25.60
2023-02-14T09:38:44.709Z,26.63
2023-02-14T09:41:42.427Z,27.67
2023-02-14T09:44:23.973Z,31.17
2023-02-14T09:46:55.288Z,30.63
2023-02-14T09:49:38.035Z,30.37
2023-02-14T09:52:07.019Z,28.93
2023-02-14T09:54:35.352Z,29.73
2023-02-14T09:57:11.796Z,34.47
2023-02-14T09:59:51.853Z,29.83
2023-02-14T10:02:58.672Z,35.37
2023-02-14T10:05:31.150Z,35.00
2023-02-14T10:08:21.045Z,34.97
2023-02-14T10:10:52.819Z,32.90
2023-02-14T10:13:25.420Z,31.75
2023-02-14T10:15:59.797Z,35.72
2023-02-14T10:18:38.305Z,34.53
2023-02-14T10:21:07.961Z,34.77
2023-02-14T10:23:41.785Z,35.58
2023-02-14T10:26:12.335Z,38.03
2023-02-14T10:28:45.580Z,38.60
2023-02-14T10:31:24.366Z,37.63
2023-02-14T10:33:57.522Z,35.30
2023-02-14T10:36:57.119Z,33.63
2023-02-14T10:39:52.708Z,34.17
2023-02-14T10:42:47.130Z,36.05
2023-02-14T10:45:32.637Z,34.03
2023-02-14T10:48:25.323Z,34.85
2023-02-14T10:51:09.290Z,33.40
2023-02-14T10:53:42.340Z,34.83
2023-02-14T10:56:20.027Z,30.80
2023-02-14T10:58:47.316Z,34.33
2023-02-14T11:01:15.697Z,31.92
2023-02-14T11:03:56.459Z,30.85
2023-02-14T11:06:27.384Z,31.10
2023-02-14T11:08:56.212Z,32.22
2023-02-14T11:11:40.520Z,30.73
2023-02-14T11:14:36.577Z,30.45
2023-02-14T11:17:28.092Z,30.52
2023-02-14T11:20:07.216Z,30.20
2023-02-14T11:22:35.372Z,27.55
2023-02-14T11:25:06.942Z,30.75
2023-02-14T11:27:33.569Z,27.98
2023-02-14T11:30:02.275Z,27.88
2023-02-14T11:32:30.550Z,29.80
2023-02-14T11:35:07.384Z,27.85
2023-02-14T11:37:44.542Z,27.50
2023-02-14T11:40:33.605Z,25.35
2023-02-14T11:43:14.300Z,24.85
2023-02-14T11:45:43.317Z,22.75
2023-02-14T11:48:19.930Z,23.13
2023-02-14T11:51:10.043Z,25.35
2023-02-14T11:53:47.949Z,26.05
2023-02-14T11:56:15.833Z,24.38
2023-02-14T11:58:56.016Z,23.98
2023-02-14T12:01:26.396Z,22.38
2023-02-14T12:03:54.699Z,24.35
2023-02-14T12:06:30.287Z,25.45
2023-02-14T12:09:25.194Z,23.70
2023-02-14T12:11:58.536Z,26.02
2023-02-14T12:14:29.721Z,25.30
2023-02-14T12:17:05.373Z,22.70
2023-02-14T12:20:00.197Z,24.13
2023-02-14T12:22:30.961Z,22.75
2023-02-14T12:25:14.970Z,25.80
2023-02-14T12:27:52.174Z,25.58
2023-02-14T12:30:22.460Z,21.27
2023-02-14T12:32:51.382Z,23.63
2023-02-14T12:36:00.499Z,22.08
2023-02-14T12:38:50.218Z,22.02
2023-02-14T12:41:29.952Z,22.35
2023-02-14T12:43:58.392Z,22.67
2023-02-14T12:46:31.028Z,23.58
2023-02-14T12:49:22.667Z,20.23
2023-02-14T12:52:04.374Z,22.85
2023-02-14T12:55:02.842Z,22.52
2023-02-14T12:57:54.810Z,22.80
2023-02-14T13:00:37.638Z,22.00
2023-02-14T13:03:21.845Z,23.65
2023-02-14T13:05:59.672Z,21.42
2023-02-14T13:08:41.090Z,23.33
2023-02-14T13:11:16.978Z,21.08
2023-02-14T13:14:04.589Z,22.35
2023-02-14T13:16:41.478Z,21.08
2023-02-14T13:19:29.953Z,21.98
2023-02-14T13:21:59.458Z,22.45
2023-02-14T13:24:29.770Z,22.00
2023-02-14T13:26:59.941Z,18.20
2023-02-14T13:29:42.092Z,19.20
2023-02-14T13:32:12.952Z,21.90
2023-02-14T13:34:44.285Z,21.35
2023-02-14T13:37:13.331Z,23.55
2023-02-14T13:39:46.154Z,21.73
2023-02-14T13:42:12.932Z,21.92
2023-02-14T13:44:50.446Z,21.48
2023-02-14T13:47:20.859Z,21.17
2023-02-14T13:50:01.524Z,24.50
2023-02-14T13:52:48.056Z,22.30
2023-02-14T13:55:24.392Z,21.10
2023-02-14T13:58:13.758Z,22.02
2023-02-14T14:00:42.643Z,20.85
2023-02-14T14:03:27.734Z,22.23
2023-02-14T14:06:06.722Z,19.10
2023-02-14T14:08:48.053Z,23.30
2023-02-14T14:11:23.713Z,21.38
2023-02-14T14:14:10.579Z,21.25
2023-02-14T14:16:38.051Z,22.95
2023-02-14T14:19:30.412Z,22.60
2023-02-14T14:22:11.000Z,19.10
2023-02-14T14:24:42.378Z,20.20
2023-02-14T14:27:25.553Z,19.83
2023-02-14T14:29:58.552Z,19.80
2023-02-14T14:32:34.969Z,20.95
2023-02-14T14:35:19.865Z,20.27
2023-02-14T14:37:54.732Z,20.98
2023-02-14T14:40:30.131Z,20.08
2023-02-14T14:43:02.196Z,21.10
2023-02-14T14:45:29.860Z,21.85
2023-02-14T14:47:58.082Z,20.90
2023-02-14T14:50:29.870Z,22.38
2023-02-14T14:53:03.069Z,21.38
2023-02-14T14:55:33.355Z,21.55
2023-02-14T14:58:05.294Z,21.52
2023-02-14T15:00:37.208Z,21.27
2023-02-14T15:03:12.640Z,19.48
2023-02-14T15:05:42.037Z,20.50
2023-02-14T15:08:14.576Z,23.95
2023-02-14T15:10:41.394Z,24.42
2023-02-14T15:13:30.524Z,21.20
2023-02-14T15:15:57.282Z,19.35
2023-02-14T15:18:23.845Z,22.67
2023-02-14T15:20:51.475Z,21.40
2023-02-14T15:23:20.902Z,21.90
2023-02-14T15:25:49.283Z,19.88
2023-02-14T15:28:27.571Z,21.35
2023-02-14T15:30:59.926Z,20.25
2023-02-14T15:33:27.213Z,20.35
2023-02-14T15:35:54.182Z,20.90
2023-02-14T15:38:23.123Z,20.83
2023-02-14T15:40:50.123Z,22.33
2023-02-14T15:43:19.698Z,23.00
2023-02-14T15:45:48.393Z,20.20
2023-02-14T15:48:18.952Z,22.77
2023-02-14T15:50:52.643Z,22.63
2023-02-14T15:53:19.247Z,20.08
2023-02-14T15:55:48.556Z,20.13
2023-02-14T15:58:24.440Z,20.42
2023-02-14T16:00:52.305Z,20.48
2023-02-14T16:03:33.844Z,24.80
2023-02-14T16:06:00.833Z,20.35
2023-02-14T16:08:33.070Z,20.50
2023-02-14T16:11:05.929Z,22.45
2023-02-14T16:13:37.416Z,21.33
2023-02-14T16:16:06.655Z,22.50
2023-02-14T16:18:39.206Z,22.05
2023-02-14T16:21:15.357Z,21.95
2023-02-14T16:23:42.394Z,21.80
2023-02-14T16:26:08.964Z,22.50
2023-02-14T16:28:37.032Z,20.58
2023-02-14T16:31:10.263Z,22.45
2023-02-14T16:33:38.996Z,20.67
2023-02-14T16:36:17.983Z,21.45
2023-02-14T16:38:46.113Z,21.38
2023-02-14T16:41:21.284Z,22.15
2023-02-14T16:43:48.848Z,22.52
2023-02-14T16:46:20.658Z,22.45
2023-02-14T16:48:52.106Z,22.75
2023-02-14T16:51:21.142Z,22.77
2023-02-14T16:53:47.974Z,23.73
2023-02-14T16:56:21.550Z,21.80
2023-02-14T16:58:48.172Z,22.80
2023-02-14T17:01:16.749Z,23.88
2023-02-14T17:03:43.704Z,24.90
2023-02-14T17:06:13.605Z,23.50
2023-02-14T17:08:41.131Z,23.02
2023-02-14T17:11:08.400Z,20.17
2023-02-14T17:13:36.990Z,22.77
2023-02-14T17:16:06.372Z,23.13
2023-02-14T17:18:33.678Z,22.55
2023-02-14T17:21:01.018Z,21.30
2023-02-14T17:23:27.707Z,20.77
2023-02-14T17:25:54.306Z,22.98
2023-02-14T17:28:20.987Z,25.00
2023-02-14T17:30:47.607Z,20.67
2023-02-14T17:33:14.655Z,18.40
2023-02-14T17:35:41.232Z,20.38
2023-02-14T17:38:07.784Z,20.55
2023-02-14T17:40:34.420Z,22.65
2023-02-14T17:43:01.265Z,23.77
2023-02-14T17:45:27.936Z,22.42
2023-02-14T17:47:54.543Z,24.17
2023-02-14T17:50:21.520Z,22.73
2023-02-14T17:52:48.455Z,22.95
2023-02-14T17:55:15.939Z,21.20
2023-02-14T17:57:42.646Z,22.17
2023-02-14T18:00:11.648Z,21.45
2023-02-14T18:02:38.679Z,21.98
2023-02-14T18:05:07.389Z,19.10
2023-02-14T18:07:34.010Z,20.67
2023-02-14T18:10:00.723Z,20.10
2023-02-14T18:12:28.342Z,21.20
2023-02-14T18:14:56.181Z,20.60
2023-02-14T18:17:23.236Z,22.40
2023-02-14T18:19:49.833Z,20.33
2023-02-14T18:22:16.456Z,20.80
2023-02-14T18:24:43.281Z,21.17
2023-02-14T18:27:09.871Z,20.45
2023-02-14T18:29:36.911Z,21.58
2023-02-14T18:32:04.939Z,23.07
2023-02-14T18:34:32.852Z,21.03
2023-02-14T18:37:01.893Z,22.77
2023-02-14T18:39:28.503Z,20.83
2023-02-14T18:41:59.953Z,23.53
2023-02-14T18:44:28.132Z,25.90
2023-02-14T18:46:54.860Z,24.13
2023-02-14T18:49:21.545Z,22.80
2023-02-14T18:51:49.216Z,21.93
2023-02-14T18:54:16.061Z,21.50
2023-02-14T18:56:42.684Z,21.50
2023-02-14T18:59:10.664Z,24.03
2023-02-14T19:01:40.753Z,20.83
2023-02-14T19:04:09.031Z,24.03
2023-02-14T19:06:36.266Z,21.50
2023-02-14T19:09:04.242Z,23.40
2023-02-14T19:11:32.049Z,23.37
2023-02-14T19:14:00.573Z,23.90
2023-02-14T19:16:33.144Z,25.40
2023-02-14T19:19:02.764Z,22.37
2023-02-14T19:21:34.198Z,24.73
2023-02-14T19:24:02.522Z,25.60
2023-02-14T19:26:32.944Z,23.57
2023-02-14T19:29:01.854Z,22.90
2023-02-14T19:31:29.150Z,22.07
2023-02-14T19:33:55.769Z,25.47
2023-02-14T19:36:23.277Z,20.30
2023-02-14T19:38:51.642Z,25.17
2023-02-14T19:41:22.842Z,23.30
2023-02-14T19:43:51.370Z,23.43
2023-02-14T19:46:19.799Z,21.73
2023-02-14T19:48:47.317Z,24.03
2023-02-14T19:51:34.269Z,25.43
2023-02-14T19:54:03.236Z,23.73
2023-02-14T19:56:34.968Z,23.73
2023-02-14T19:59:07.727Z,25.40
2023-02-14T20:01:43.176Z,26.20
2023-02-14T20:04:11.356Z,28.33
2023-02-14T20:06:38.448Z,23.67
2023-02-14T20:09:05.727Z,25.50
2023-02-14T20:11:36.575Z,24.20
2023-02-14T20:14:03.844Z,23.40
2023-02-14T20:16:33.069Z,26.57
2023-02-14T20:19:04.591Z,22.00
2023-02-14T20:21:31.200Z,27.40
2023-02-14T20:24:00.978Z,25.03
2023-02-14T20:26:29.602Z,27.90
2023-02-14T20:28:59.482Z,29.37
2023-02-14T20:31:26.438Z,27.47
2023-02-14T20:33:53.067Z,26.40
2023-02-14T20:36:20.411Z,25.93
2023-02-14T20:38:47.248Z,27.23
2023-02-14T20:41:16.596Z,27.73
2023-02-14T20:43:43.194Z,26.77
2023-02-14T20:46:09.838Z,27.13
2023-02-14T20:48:36.654Z,27.23
2023-02-14T20:51:10.585Z,26.23
2023-02-14T20:53:37.186Z,27.50
2023-02-14T20:56:03.958Z,27.13
2023-02-14T20:58:31.251Z,27.90
2023-02-14T21:01:14.385Z,28.80
2023-02-14T21:03:46.893Z,26.50
2023-02-14T21:06:14.732Z,25.80
2023-02-14T21:08:42.707Z,28.70
2023-02-14T21:11:10.763Z,26.67
2023-02-14T21:13:37.794Z,27.93
2023-02-14T21:16:12.348Z,26.20
2023-02-14T21:18:39.013Z,26.27
2023-02-14T21:21:13.017Z,28.37
2023-02-14T21:23:40.232Z,27.87
2023-02-14T21:26:06.851Z,29.93
2023-02-14T21:28:33.318Z,31.87
2023-02-14T21:31:08.261Z,30.63
2023-02-14T21:33:35.630Z,29.60
2023-02-14T21:36:16.381Z,25.40
2023-02-14T21:38:43.223Z,26.03
2023-02-14T21:41:12.078Z,32.70
2023-02-14T21:43:39.996Z,27.83
2023-02-14T21:46:08.188Z,32.70
2023-02-14T21:48:53.336Z,30.47
2023-02-14T21:51:20.355Z,30.33
2023-02-14T21:53:47.281Z,31.53
2023-02-14T21:56:17.933Z,27.47
2023-02-14T21:58:44.579Z,30.77
2023-02-14T22:01:19.153Z,28.97
2023-02-14T22:03:45.738Z,30.27
2023-02-14T22:06:13.267Z,28.80
2023-02-14T22:08:40.346Z,31.97
2023-02-14T22:11:15.969Z,30.67
2023-02-14T22:13:42.710Z,29.03
2023-02-14T22:16:14.781Z,30.23
2023-02-14T22:18:41.931Z,27.70
2023-02-14T22:21:11.920Z,30.50
2023-02-14T22:23:38.804Z,33.90
2023-02-14T22:26:17.447Z,33.83
2023-02-14T22:28:46.294Z,28.27
2023-02-14T22:31:13.420Z,29.80
2023-02-14T22:33:40.065Z,29.50
2023-02-14T22:36:07.379Z,31.40
2023-02-14T22:38:34.638Z,31.53
2023-02-14T22:41:18.104Z,32.50
2023-02-14T22:43:44.563Z,33.30
2023-02-14T22:46:28.061Z,32.40
2023-02-14T22:48:55.953Z,32.50
2023-02-14T22:51:26.356Z,29.70
2023-02-14T22:53:56.672Z,29.50
2023-02-14T22:56:24.201Z,29.37
2023-02-14T22:59:04.810Z,30.23
2023-02-14T23:01:32.901Z,33.27
2023-02-14T23:04:00.909Z,33.97
2023-02-14T23:06:28.936Z,29.53
2023-02-14T23:08:56.364Z,33.23
2023-02-14T23:11:27.985Z,30.43
2023-02-14T23:14:13.555Z,32.00
2023-02-14T23:16:59.158Z,30.50
2023-02-14T23:19:46.008Z,26.87
2023-02-14T23:22:19.406Z,31.30
2023-02-14T23:24:49.869Z,30.80
2023-02-14T23:27:17.882Z,29.83
2023-02-14T23:29:44.316Z,28.40
2023-02-14T23:32:10.902Z,28.33
2023-02-14T23:34:39.263Z,30.77
2023-02-14T23:37:06.088Z,36.13
2023-02-14T23:39:35.638Z,29.87
2023-02-14T23:42:03.111Z,34.47
2023-02-14T23:44:30.648Z,30.07
2023-02-14T23:46:58.734Z,29.40
2023-02-14T23:49:26.465Z,29.63
2023-02-14T23:51:54.679Z,33.40
2023-02-14T23:54:22.856Z,31.43
2023-02-14T23:56:51.169Z,32.77
2023-02-14T23:59:18.788Z,31.77
